sensor_id;sensor_type;location;lat;lon;timestamp;pressure;altitude;pressure_sealevel;temperature;humidity
15477;BME280;7840;42.702;23.296;2023-01-28T00:02:08;94418.00;;;-0.32;100.00
15477;BME280;7840;42.702;23.296;2023-01-28T00:04:40;94415.97;;;-0.30;100.00
15477;BME280;7840;42.702;23.296;2023-01-28T00:07:08;94428.00;;;-0.29;100.00
15477;BME280;7840;42.702;23.296;2023-01-28T00:09:35;94429.22;;;-0.25;100.00
15477;BME280;7840;42.702;23.296;2023-01-28T00:14:47;94440.44;;;-0.18;100.00
15477;BME280;7840;42.702;23.296;2023-01-28T00:17:17;94432.03;;;-0.20;100.00
15477;BME280;7840;42.702;23.296;2023-01-28T00:20:20;94440.41;;;-0.31;100.00
15477;BME280;7840;42.702;23.296;2023-01-28T00:22:51;94452.22;;;-0.22;100.00
15477;BME280;7840;42.702;23.296;2023-01-28T00:25:19;94451.09;;;-0.13;100.00
15477;BME280;7840;42.702;23.296;2023-01-28T00:27:49;94444.22;;;-0.27;100.00
15477;BME280;7840;42.702;23.296;2023-01-28T00:30:17;94443.84;;;-0.17;100.00
15477;BME280;7840;42.702;23.296;2023-01-28T00:32:45;94456.47;;;-0.14;100.00
15477;BME280;7840;42.702;23.296;2023-01-28T00:35:15;94456.44;;;-0.21;100.00
15477;BME280;7840;42.702;23.296;2023-01-28T00:37:48;94453.00;;;-0.28;100.00
15477;BME280;7840;42.702;23.296;2023-01-28T00:40:16;94470.84;;;-0.25;100.00
15477;BME280;7840;42.702;23.296;2023-01-28T00:42:44;94459.63;;;-0.32;100.00
15477;BME280;7840;42.702;23.296;2023-01-28T00:45:12;94451.66;;;-0.17;100.00
15477;BME280;7840;42.702;23.296;2023-01-28T00:47:51;94463.59;;;-0.36;100.00
15477;BME280;7840;42.702;23.296;2023-01-28T00:50:20;94473.66;;;-0.26;100.00
15477;BME280;7840;42.702;23.296;2023-01-28T00:52:49;94458.41;;;-0.30;100.00
15477;BME280;7840;42.702;23.296;2023-01-28T00:55:20;94469.44;;;-0.34;100.00
15477;BME280;7840;42.702;23.296;2023-01-28T00:57:48;94466.94;;;-0.49;100.00
15477;BME280;7840;42.702;23.296;2023-01-28T01:00:17;94466.38;;;-0.44;100.00
15477;BME280;7840;42.702;23.296;2023-01-28T01:02:46;94472.16;;;-0.42;100.00
15477;BME280;7840;42.702;23.296;2023-01-28T01:05:14;94466.41;;;-0.31;100.00
15477;BME280;7840;42.702;23.296;2023-01-28T01:07:42;94465.25;;;-0.22;100.00
15477;BME280;7840;42.702;23.296;2023-01-28T01:10:19;94463.22;;;-0.33;100.00
15477;BME280;7840;42.702;23.296;2023-01-28T01:12:55;94466.03;;;-0.28;100.00
15477;BME280;7840;42.702;23.296;2023-01-28T01:15:25;94459.56;;;-0.45;100.00
15477;BME280;7840;42.702;23.296;2023-01-28T01:17:54;94465.19;;;-0.35;100.00
15477;BME280;7840;42.702;23.296;2023-01-28T01:20:25;94469.44;;;-0.34;100.00
15477;BME280;7840;42.702;23.296;2023-01-28T01:22:53;94466.81;;;-0.28;100.00
15477;BME280;7840;42.702;23.296;2023-01-28T01:25:28;94474.06;;;-0.23;100.00
15477;BME280;7840;42.702;23.296;2023-01-28T01:27:56;94472.41;;;-0.37;100.00
15477;BME280;7840;42.702;23.296;2023-01-28T01:30:26;94477.59;;;-0.37;100.00
15477;BME280;7840;42.702;23.296;2023-01-28T01:32:53;94475.00;;;-0.37;100.00
15477;BME280;7840;42.702;23.296;2023-01-28T01:35:21;94483.81;;;-0.38;100.00
15477;BME280;7840;42.702;23.296;2023-01-28T01:37:49;94478.03;;;-0.34;100.00
15477;BME280;7840;42.702;23.296;2023-01-28T01:40:17;94477.56;;;-0.44;100.00
15477;BME280;7840;42.702;23.296;2023-01-28T01:42:47;94474.41;;;-0.39;100.00
15477;BME280;7840;42.702;23.296;2023-01-28T01:45:14;94471.16;;;-0.41;100.00
15477;BME280;7840;42.702;23.296;2023-01-28T01:47:46;94484.81;;;-0.39;100.00
15477;BME280;7840;42.702;23.296;2023-01-28T01:50:20;94481.56;;;-0.41;100.00
15477;BME280;7840;42.702;23.296;2023-01-28T01:52:59;94481.19;;;-0.38;100.00
15477;BME280;7840;42.702;23.296;2023-01-28T01:55:44;94472.16;;;-0.42;100.00
15477;BME280;7840;42.702;23.296;2023-01-28T01:58:18;94478.00;;;-0.40;100.00
15477;BME280;7840;42.702;23.296;2023-01-28T02:00:48;94481.81;;;-0.36;100.00
15477;BME280;7840;42.702;23.296;2023-01-28T02:03:20;94478.00;;;-0.40;100.00
15477;BME280;7840;42.702;23.296;2023-01-28T02:05:52;94485.19;;;-0.42;100.00
15477;BME280;7840;42.702;23.296;2023-01-28T02:08:20;94491.63;;;-0.38;100.00
15477;BME280;7840;42.702;23.296;2023-01-28T02:10:53;94485.56;;;-0.45;100.00
15477;BME280;7840;42.702;23.296;2023-01-28T02:13:26;94495.22;;;-0.39;100.00
15477;BME280;7840;42.702;23.296;2023-01-28T02:15:55;94491.63;;;-0.38;100.00
15477;BME280;7840;42.702;23.296;2023-01-28T02:18:59;94495.94;;;-0.52;100.00
15477;BME280;7840;42.702;23.296;2023-01-28T02:21:58;94493.00;;;-0.36;100.00
15477;BME280;7840;42.702;23.296;2023-01-28T02:28:22;94494.75;;;-0.49;100.00
15477;BME280;7840;42.702;23.296;2023-01-28T02:31:12;94495.56;;;-0.42;100.00
15477;BME280;7840;42.702;23.296;2023-01-28T02:33:49;94495.75;;;-0.50;100.00
15477;BME280;7840;42.702;23.296;2023-01-28T02:36:31;94493.97;;;-0.43;100.00
15477;BME280;7840;42.702;23.296;2023-01-28T02:39:07;94497.34;;;-0.49;100.00
15477;BME280;7840;42.702;23.296;2023-01-28T02:41:39;94496.06;;;-0.67;100.00
15477;BME280;7840;42.702;23.296;2023-01-28T02:44:09;94497.16;;;-0.54;100.00
15477;BME280;7840;42.702;23.296;2023-01-28T02:46:37;94493.78;;;-0.42;100.00
15477;BME280;7840;42.702;23.296;2023-01-28T02:49:27;94504.03;;;-0.40;100.00
15477;BME280;7840;42.702;23.296;2023-01-28T02:52:19;94496.34;;;-0.48;100.00
15477;BME280;7840;42.702;23.296;2023-01-28T02:55:17;94497.16;;;-0.54;100.00
15477;BME280;7840;42.702;23.296;2023-01-28T02:57:55;94502.56;;;-0.49;100.00
15477;BME280;7840;42.702;23.296;2023-01-28T03:00:31;94491.00;;;-0.40;100.00
15477;BME280;7840;42.702;23.296;2023-01-28T03:03:14;94498.41;;;-0.37;100.00
15477;BME280;7840;42.702;23.296;2023-01-28T03:06:16;94509.91;;;-0.60;100.00
15477;BME280;7840;42.702;23.296;2023-01-28T03:08:51;94505.06;;;-0.63;100.00
15477;BME280;7840;42.702;23.296;2023-01-28T03:11:41;94497.34;;;-0.49;100.00
15477;BME280;7840;42.702;23.296;2023-01-28T03:14:26;94501.56;;;-0.48;100.00
15477;BME280;7840;42.702;23.296;2023-01-28T03:17:21;94505.59;;;-0.46;100.00
15477;BME280;7840;42.702;23.296;2023-01-28T03:20:30;94519.75;;;-0.48;100.00
15477;BME280;7840;42.702;23.296;2023-01-28T03:23:36;94519.06;;;-0.64;100.00
15477;BME280;7840;42.702;23.296;2023-01-28T03:26:36;94514.72;;;-0.57;100.00
15477;BME280;7840;42.702;23.296;2023-01-28T03:29:23;94516.88;;;-0.67;100.00
15477;BME280;7840;42.702;23.296;2023-01-28T03:32:13;94523.16;;;-0.54;100.00
15477;BME280;7840;42.702;23.296;2023-01-28T03:34:58;94512.75;;;-0.54;100.00
15477;BME280;7840;42.702;23.296;2023-01-28T03:37:44;94520.72;;;-0.56;100.00
15477;BME280;7840;42.702;23.296;2023-01-28T03:40:17;94522.31;;;-0.55;100.00
15477;BME280;7840;42.702;23.296;2023-01-28T03:42:47;94519.88;;;-0.63;100.00
15477;BME280;7840;42.702;23.296;2023-01-28T03:45:17;94524.72;;;-0.60;100.00
15477;BME280;7840;42.702;23.296;2023-01-28T03:48:19;94523.97;;;-0.54;100.00
15477;BME280;7840;42.702;23.296;2023-01-28T03:50:50;94522.59;;;-0.78;100.00
15477;BME280;7840;42.702;23.296;2023-01-28T03:53:18;94526.44;;;-0.74;100.00
15477;BME280;7840;42.702;23.296;2023-01-28T03:55:47;94521.84;;;-0.72;100.00
15477;BME280;7840;42.702;23.296;2023-01-28T03:58:16;94530.63;;;-0.73;100.00
15477;BME280;7840;42.702;23.296;2023-01-28T04:00:44;94521.06;;;-0.66;100.00
15477;BME280;7840;42.702;23.296;2023-01-28T04:03:18;94535.44;;;-0.70;100.00
15477;BME280;7840;42.702;23.296;2023-01-28T04:05:56;94532.38;;;-0.80;100.00
15477;BME280;7840;42.702;23.296;2023-01-28T04:08:25;94532.84;;;-0.70;100.00
15477;BME280;7840;42.702;23.296;2023-01-28T04:10:53;94550.19;;;-0.77;100.00
15477;BME280;7840;42.702;23.296;2023-01-28T04:13:24;94541.41;;;-0.76;100.00
15477;BME280;7840;42.702;23.296;2023-01-28T04:15:51;94543.19;;;-0.76;100.00
15477;BME280;7840;42.702;23.296;2023-01-28T04:18:21;94555.03;;;-0.74;100.00
15477;BME280;7840;42.702;23.296;2023-01-28T04:20:52;94539.94;;;-0.85;100.00
15477;BME280;7840;42.702;23.296;2023-01-28T04:23:36;94545.38;;;-0.80;100.00
15477;BME280;7840;42.702;23.296;2023-01-28T04:26:04;94543.88;;;-0.68;100.00
15477;BME280;7840;42.702;23.296;2023-01-28T04:28:32;94552.84;;;-0.70;100.00
15477;BME280;7840;42.702;23.296;2023-01-28T04:31:13;94549.44;;;-0.71;100.00
15477;BME280;7840;42.702;23.296;2023-01-28T04:33:42;94562.19;;;-0.76;100.00
15477;BME280;7840;42.702;23.296;2023-01-28T04:38:40;94555.09;;;-0.67;100.00
15477;BME280;7840;42.702;23.296;2023-01-28T04:41:08;94568.13;;;-0.89;100.00
15477;BME280;7840;42.702;23.296;2023-01-28T04:43:36;94563.09;;;-0.90;100.00
15477;BME280;7840;42.702;23.296;2023-01-28T04:46:04;94571.75;;;-0.83;100.00
15477;BME280;7840;42.702;23.296;2023-01-28T04:48:32;94578.38;;;-0.80;100.00
15477;BME280;7840;42.702;23.296;2023-01-28T04:51:15;94577.44;;;-0.73;100.00
15477;BME280;7840;42.702;23.296;2023-01-28T04:53:57;94575.22;;;-0.97;100.00
15477;BME280;7840;42.702;23.296;2023-01-28T04:56:27;94583.13;;;-0.84;100.00
15477;BME280;7840;42.702;23.296;2023-01-28T04:59:08;94569.53;;;-0.86;100.00
15477;BME280;7840;42.702;23.296;2023-01-28T05:01:46;94574.13;;;-0.88;100.00
15477;BME280;7840;42.702;23.296;2023-01-28T05:04:14;94576.88;;;-0.90;100.00
15477;BME280;7840;42.702;23.296;2023-01-28T05:06:46;94590.81;;;-0.97;100.00
15477;BME280;7840;42.702;23.296;2023-01-28T05:09:19;94582.41;;;-0.99;100.00
15477;BME280;7840;42.702;23.296;2023-01-28T05:11:47;94578.81;;;-0.98;100.00
15477;BME280;7840;42.702;23.296;2023-01-28T05:14:20;94588.22;;;-0.97;100.00
15477;BME280;7840;42.702;23.296;2023-01-28T05:16:48;94592.50;;;-0.90;100.00
15477;BME280;7840;42.702;23.296;2023-01-28T05:19:36;94592.81;;;-0.99;100.00
15477;BME280;7840;42.702;23.296;2023-01-28T05:22:07;94592.94;;;-0.86;100.00
15477;BME280;7840;42.702;23.296;2023-01-28T05:24:45;94596.88;;;-0.90;100.00
15477;BME280;7840;42.702;23.296;2023-01-28T05:27:14;94602.09;;;-0.90;100.00
15477;BME280;7840;42.702;23.296;2023-01-28T05:29:45;94600.13;;;-0.88;100.00
15477;BME280;7840;42.702;23.296;2023-01-28T05:32:13;94599.25;;;-0.95;100.00
15477;BME280;7840;42.702;23.296;2023-01-28T05:34:40;94601.34;;;-0.84;100.00
15477;BME280;7840;42.702;23.296;2023-01-28T05:37:21;94601.44;;;-0.71;100.00
15477;BME280;7840;42.702;23.296;2023-01-28T05:39:48;94610.63;;;-0.75;100.00
15477;BME280;7840;42.702;23.296;2023-01-28T05:42:16;94606.47;;;-0.91;100.00
15477;BME280;7840;42.702;23.296;2023-01-28T05:44:46;94622.06;;;-0.91;100.00
15477;BME280;7840;42.702;23.296;2023-01-28T05:47:14;94616.75;;;-0.83;100.00
15477;BME280;7840;42.702;23.296;2023-01-28T05:49:45;94615.28;;;-0.92;100.00
15477;BME280;7840;42.702;23.296;2023-01-28T05:52:40;94622.88;;;-0.90;100.00
15477;BME280;7840;42.702;23.296;2023-01-28T05:55:09;94620.97;;;-0.81;100.00
15477;BME280;7840;42.702;23.296;2023-01-28T05:57:37;94616.34;;;-0.86;100.00
15477;BME280;7840;42.702;23.296;2023-01-28T06:00:09;94627.97;;;-0.82;100.00
15477;BME280;7840;42.702;23.296;2023-01-28T06:02:40;94630.19;;;-0.79;100.00
15477;BME280;7840;42.702;23.296;2023-01-28T06:05:08;94633.91;;;-0.88;100.00
15477;BME280;7840;42.702;23.296;2023-01-28T06:07:48;94643.31;;;-0.87;100.00
15477;BME280;7840;42.702;23.296;2023-01-28T06:10:16;94647.66;;;-0.94;100.00
15477;BME280;7840;42.702;23.296;2023-01-28T06:12:44;94650.13;;;-0.86;100.00
15477;BME280;7840;42.702;23.296;2023-01-28T06:15:11;94657.78;;;-0.78;100.00
15477;BME280;7840;42.702;23.296;2023-01-28T06:17:39;94655.66;;;-0.96;100.00
15477;BME280;7840;42.702;23.296;2023-01-28T06:20:08;94655.31;;;-0.86;100.00
15477;BME280;7840;42.702;23.296;2023-01-28T06:22:41;94657.00;;;-0.78;100.00
15477;BME280;7840;42.702;23.296;2023-01-28T06:25:17;94665.84;;;-0.73;100.00
15477;BME280;7840;42.702;23.296;2023-01-28T06:27:46;94674.38;;;-0.79;100.00
15477;BME280;7840;42.702;23.296;2023-01-28T06:30:14;94670.50;;;-0.68;100.00
15477;BME280;7840;42.702;23.296;2023-01-28T06:32:42;94677.91;;;-0.65;100.00
15477;BME280;7840;42.702;23.296;2023-01-28T06:35:09;94682.31;;;-0.66;100.00
15477;BME280;7840;42.702;23.296;2023-01-28T06:37:52;94679.72;;;-0.66;100.00
15477;BME280;7840;42.702;23.296;2023-01-28T06:40:20;94680.97;;;-0.62;100.00
15477;BME280;7840;42.702;23.296;2023-01-28T06:42:51;94684.91;;;-0.66;100.00
15477;BME280;7840;42.702;23.296;2023-01-28T06:45:36;94694.72;;;-0.68;100.00
15477;BME280;7840;42.702;23.296;2023-01-28T06:48:05;94690.38;;;-0.61;100.00
15477;BME280;7840;42.702;23.296;2023-01-28T06:50:46;94691.72;;;-0.65;100.00
15477;BME280;7840;42.702;23.296;2023-01-28T06:53:19;94699.41;;;-0.78;100.00
15477;BME280;7840;42.702;23.296;2023-01-28T06:56:01;94707.31;;;-0.86;100.00
15477;BME280;7840;42.702;23.296;2023-01-28T06:58:30;94704.47;;;-0.91;100.00
15477;BME280;7840;42.702;23.296;2023-01-28T07:01:01;94715.72;;;-0.84;100.00
15477;BME280;7840;42.702;23.296;2023-01-28T07:03:29;94711.84;;;-0.73;100.00
15477;BME280;7840;42.702;23.296;2023-01-28T07:05:57;94709.06;;;-0.72;100.00
15477;BME280;7840;42.702;23.296;2023-01-28T07:08:27;94711.91;;;-0.67;100.00
15477;BME280;7840;42.702;23.296;2023-01-28T07:10:55;94714.72;;;-0.68;100.00
15477;BME280;7840;42.702;23.296;2023-01-28T07:13:23;94721.31;;;-0.66;100.00
15477;BME280;7840;42.702;23.296;2023-01-28T07:16:10;94733.72;;;-0.46;100.00
15477;BME280;7840;42.702;23.296;2023-01-28T07:18:44;94732.03;;;-0.54;100.00
15477;BME280;7840;42.702;23.296;2023-01-28T07:21:27;94735.19;;;-0.59;100.00
15477;BME280;7840;42.702;23.296;2023-01-28T07:24:10;94739.94;;;-0.62;100.00
15477;BME280;7840;42.702;23.296;2023-01-28T07:26:40;94743.59;;;-0.57;100.00
15477;BME280;7840;42.702;23.296;2023-01-28T07:29:20;94743.66;;;-0.50;100.00
15477;BME280;7840;42.702;23.296;2023-01-28T07:31:50;94747.59;;;-0.39;100.00
15477;BME280;7840;42.702;23.296;2023-01-28T07:34:18;94750.19;;;-0.61;100.00
15477;BME280;7840;42.702;23.296;2023-01-28T07:37:06;94749.31;;;-0.46;100.00
15477;BME280;7840;42.702;23.296;2023-01-28T07:39:37;94751.84;;;-0.53;100.00
15477;BME280;7840;42.702;23.296;2023-01-28T07:42:12;94752.22;;;-0.56;100.00
15477;BME280;7840;42.702;23.296;2023-01-28T07:44:40;94771.22;;;-0.56;100.00
15477;BME280;7840;42.702;23.296;2023-01-28T07:47:09;94764.00;;;-0.60;100.00
15477;BME280;7840;42.702;23.296;2023-01-28T07:49:37;94757.72;;;-0.44;100.00
15477;BME280;7840;42.702;23.296;2023-01-28T07:52:07;94759.59;;;-0.38;100.00
15477;BME280;7840;42.702;23.296;2023-01-28T07:54:36;94770.25;;;-0.33;100.00
15477;BME280;7840;42.702;23.296;2023-01-28T07:57:07;94773.09;;;-0.28;100.00
15477;BME280;7840;42.702;23.296;2023-01-28T07:59:40;94769.50;;;-0.27;100.00
15477;BME280;7840;42.702;23.296;2023-01-28T08:02:17;94775.13;;;-0.23;100.00
15477;BME280;7840;42.702;23.296;2023-01-28T08:04:46;94776.06;;;-0.10;100.00
15477;BME280;7840;42.702;23.296;2023-01-28T08:07:30;94780.78;;;-0.20;100.00
15477;BME280;7840;42.702;23.296;2023-01-28T08:09:59;94779.03;;;-0.13;100.00
15477;BME280;7840;42.702;23.296;2023-01-28T08:12:26;94778.19;;;-0.20;100.00
15477;BME280;7840;42.702;23.296;2023-01-28T08:14:54;94784.25;;;-0.13;100.00
15477;BME280;7840;42.702;23.296;2023-01-28T08:17:27;94782.50;;;-0.06;100.00
15477;BME280;7840;42.702;23.296;2023-01-28T08:19:58;94788.47;;;-0.12;100.00
15477;BME280;7840;42.702;23.296;2023-01-28T08:22:31;94797.31;;;-0.06;100.00
15477;BME280;7840;42.702;23.296;2023-01-28T08:25:16;94804.69;;;-0.10;100.00
15477;BME280;7840;42.702;23.296;2023-01-28T08:27:55;94798.97;;;0.02;100.00
15477;BME280;7840;42.702;23.296;2023-01-28T08:30:35;94809.41;;;0.02;100.00
15477;BME280;7840;42.702;23.296;2023-01-28T08:33:16;94801.66;;;0.08;100.00
15477;BME280;7840;42.702;23.296;2023-01-28T08:35:45;94798.47;;;0.13;100.00
15477;BME280;7840;42.702;23.296;2023-01-28T08:38:25;94791.19;;;0.30;100.00
15477;BME280;7840;42.702;23.296;2023-01-28T08:41:09;94790.09;;;0.17;100.00
15477;BME280;7840;42.702;23.296;2023-01-28T08:43:51;94799.31;;;0.20;100.00
15477;BME280;7840;42.702;23.296;2023-01-28T08:46:23;94798.50;;;0.47;100.00
15477;BME280;7840;42.702;23.296;2023-01-28T08:49:22;94802.66;;;0.70;100.00
15477;BME280;7840;42.702;23.296;2023-01-28T08:51:52;94799.03;;;0.64;100.00
15477;BME280;7840;42.702;23.296;2023-01-28T08:54:24;94808.44;;;0.65;100.00
15477;BME280;7840;42.702;23.296;2023-01-28T08:57:05;94801.63;;;0.64;100.00
15477;BME280;7840;42.702;23.296;2023-01-28T08:59:49;94805.09;;;0.43;100.00
15477;BME280;7840;42.702;23.296;2023-01-28T09:02:17;94819.28;;;0.41;100.00
15477;BME280;7840;42.702;23.296;2023-01-28T09:07:29;94808.56;;;0.50;100.00
15477;BME280;7840;42.702;23.296;2023-01-28T09:09:57;94818.50;;;0.40;100.00
15477;BME280;7840;42.702;23.296;2023-01-28T09:12:26;94812.81;;;0.30;100.00
15477;BME280;7840;42.702;23.296;2023-01-28T09:14:54;94821.03;;;0.06;100.00
15477;BME280;7840;42.702;23.296;2023-01-28T09:17:21;94828.22;;;0.04;100.00
15477;BME280;7840;42.702;23.296;2023-01-28T09:19:49;94817.06;;;0.10;100.00
15477;BME280;7840;42.702;23.296;2023-01-28T09:22:17;94816.44;;;0.29;100.00
15477;BME280;7840;42.702;23.296;2023-01-28T09:24:45;94821.59;;;0.22;100.00
15477;BME280;7840;42.702;23.296;2023-01-28T09:27:14;94821.03;;;0.06;100.00
15477;BME280;7840;42.702;23.296;2023-01-28T09:29:55;94815.81;;;0.06;100.00
15477;BME280;7840;42.702;23.296;2023-01-28T09:32:38;94814.59;;;0.02;100.00
15477;BME280;7840;42.702;23.296;2023-01-28T09:35:06;94800.59;;;0.03;100.00
15477;BME280;7840;42.702;23.296;2023-01-28T09:37:47;94813.06;;;0.35;100.00
15477;BME280;7840;42.702;23.296;2023-01-28T09:40:38;94809.22;;;0.31;100.00
15477;BME280;7840;42.702;23.296;2023-01-28T09:43:25;94815.47;;;0.09;100.00
15477;BME280;7840;42.702;23.296;2023-01-28T09:46:15;94811.69;;;0.39;100.00
15477;BME280;7840;42.702;23.296;2023-01-28T09:48:51;94808.81;;;0.28;100.00
15477;BME280;7840;42.702;23.296;2023-01-28T09:51:30;94813.97;;;0.21;100.00
15477;BME280;7840;42.702;23.296;2023-01-28T09:54:26;94814.44;;;0.31;100.00
15477;BME280;7840;42.702;23.296;2023-01-28T09:57:01;94803.97;;;0.24;100.00
15477;BME280;7840;42.702;23.296;2023-01-28T09:59:34;94812.34;;;0.20;100.00
15477;BME280;7840;42.702;23.296;2023-01-28T10:02:21;94805.16;;;0.22;100.00
15477;BME280;7840;42.702;23.296;2023-01-28T10:05:19;94808.38;;;0.24;100.00
15477;BME280;7840;42.702;23.296;2023-01-28T10:08:21;94812.34;;;0.20;100.00
15477;BME280;7840;42.702;23.296;2023-01-28T10:10:59;94805.28;;;0.14;100.00
15477;BME280;7840;42.702;23.296;2023-01-28T10:13:37;94805.41;;;0.06;100.00
15477;BME280;7840;42.702;23.296;2023-01-28T10:16:15;94804.00;;;0.03;100.00
15477;BME280;7840;42.702;23.296;2023-01-28T10:19:00;94807.00;;;0.07;100.00
15477;BME280;7840;42.702;23.296;2023-01-28T10:21:34;94801.06;;;0.13;100.00
15477;BME280;7840;42.702;23.296;2023-01-28T10:24:09;94799.44;;;0.12;100.00
15477;BME280;7840;42.702;23.296;2023-01-28T10:26:49;94810.72;;;0.19;100.00
15477;BME280;7840;42.702;23.296;2023-01-28T10:29:23;94803.44;;;0.08;100.00
15477;BME280;7840;42.702;23.296;2023-01-28T10:32:00;94804.66;;;0.12;100.00
15477;BME280;7840;42.702;23.296;2023-01-28T10:34:32;94805.16;;;0.22;100.00
15477;BME280;7840;42.702;23.296;2023-01-28T10:36:59;94807.16;;;0.26;100.00
15477;BME280;7840;42.702;23.296;2023-01-28T10:39:28;94799.44;;;0.12;100.00
15477;BME280;7840;42.702;23.296;2023-01-28T10:41:56;94801.91;;;0.20;100.00
15477;BME280;7840;42.702;23.296;2023-01-28T10:44:30;94803.25;;;0.37;100.00
15477;BME280;7840;42.702;23.296;2023-01-28T10:47:03;94799.34;;;0.54;100.00
15477;BME280;7840;42.702;23.296;2023-01-28T10:49:50;94797.75;;;0.53;100.00
15477;BME280;7840;42.702;23.296;2023-01-28T10:52:19;94797.69;;;0.47;100.00
15477;BME280;7840;42.702;23.296;2023-01-28T10:54:59;94803.09;;;0.45;100.00
15477;BME280;7840;42.702;23.296;2023-01-28T10:57:27;94797.66;;;0.40;100.00
15477;BME280;7840;42.702;23.296;2023-01-28T10:59:56;94796.63;;;0.63;100.00
15477;BME280;7840;42.702;23.296;2023-01-28T11:02:32;94809.31;;;0.44;100.00
15477;BME280;7840;42.702;23.296;2023-01-28T11:08:15;94791.81;;;0.66;100.00
15477;BME280;7840;42.702;23.296;2023-01-28T11:10:46;94797.06;;;0.73;100.00
15477;BME280;7840;42.702;23.296;2023-01-28T11:13:17;94801.94;;;0.89;100.00
15477;BME280;7840;42.702;23.296;2023-01-28T11:15:50;94805.03;;;0.65;100.00
15477;BME280;7840;42.702;23.296;2023-01-28T11:18:22;94799.81;;;0.65;100.00
15477;BME280;7840;42.702;23.296;2023-01-28T11:21:20;94805.72;;;0.80;100.00
15477;BME280;7840;42.702;23.296;2023-01-28T11:23:54;94796.06;;;0.74;100.00
15477;BME280;7840;42.702;23.296;2023-01-28T11:26:44;94795.75;;;0.90;100.00
15477;BME280;7840;42.702;23.296;2023-01-28T11:29:23;94807.63;;;0.65;100.00
15477;BME280;7840;42.702;23.296;2023-01-28T11:32:51;94792.00;;;0.65;100.00
15477;BME280;7840;42.702;23.296;2023-01-28T11:35:25;94796.44;;;0.71;100.00
15477;BME280;7840;42.702;23.296;2023-01-28T11:37:56;94793.50;;;0.87;100.00
15477;BME280;7840;42.702;23.296;2023-01-28T11:40:34;94787.75;;;0.98;100.00
15477;BME280;7840;42.702;23.296;2023-01-28T11:43:16;94784.81;;;1.15;100.00
15477;BME280;7840;42.702;23.296;2023-01-28T11:45:48;94800.91;;;1.25;100.00
15477;BME280;7840;42.702;23.296;2023-01-28T11:48:45;94783.97;;;1.07;100.00
15477;BME280;7840;42.702;23.296;2023-01-28T11:51:37;94787.97;;;0.97;100.00
15477;BME280;7840;42.702;23.296;2023-01-28T11:54:21;94784.63;;;1.23;100.00
15477;BME280;7840;42.702;23.296;2023-01-28T11:57:18;94780.81;;;1.19;100.00
15477;BME280;7840;42.702;23.296;2023-01-28T12:00:12;94786.63;;;1.21;100.00
15477;BME280;7840;42.702;23.296;2023-01-28T12:02:52;94780.81;;;1.19;100.00
15477;BME280;7840;42.702;23.296;2023-01-28T12:05:40;94785.47;;;1.30;100.00
15477;BME280;7840;42.702;23.296;2023-01-28T12:08:36;94793.22;;;1.17;100.00
15477;BME280;7840;42.702;23.296;2023-01-28T12:11:21;94790.75;;;0.95;100.00
15477;BME280;7840;42.702;23.296;2023-01-28T12:14:28;94789.56;;;0.98;100.00
15477;BME280;7840;42.702;23.296;2023-01-28T12:17:21;94787.25;;;1.23;100.00
15477;BME280;7840;42.702;23.296;2023-01-28T12:20:07;94783.63;;;1.17;100.00
15477;BME280;7840;42.702;23.296;2023-01-28T12:22:55;94785.19;;;1.05;100.00
15477;BME280;7840;42.702;23.296;2023-01-28T12:26:02;94793.22;;;1.03;100.00
15477;BME280;7840;42.702;23.296;2023-01-28T12:28:56;94788.66;;;1.19;100.00
15477;BME280;7840;42.702;23.296;2023-01-28T12:31:39;94790.38;;;0.98;100.00
15477;BME280;7840;42.702;23.296;2023-01-28T12:34:36;94792.78;;;1.00;100.00
15477;BME280;7840;42.702;23.296;2023-01-28T12:57:52;94814.25;;;0.67;100.00
15477;BME280;7840;42.702;23.296;2023-01-28T13:00:25;94820.34;;;0.81;100.00
15477;BME280;7840;42.702;23.296;2023-01-28T13:03:09;94812.78;;;0.86;100.00
15477;BME280;7840;42.702;23.296;2023-01-28T13:05:50;94816.00;;;0.95;100.00
15477;BME280;7840;42.702;23.296;2023-01-28T13:08:25;94813.56;;;0.87;100.00
15477;BME280;7840;42.702;23.296;2023-01-28T13:11:16;94813.66;;;1.06;100.00
15477;BME280;7840;42.702;23.296;2023-01-28T13:13:53;94820.56;;;1.21;100.00
15477;BME280;7840;42.702;23.296;2023-01-28T13:16:21;94823.34;;;1.13;100.00
15477;BME280;7840;42.702;23.296;2023-01-28T13:18:52;94829.63;;;1.25;100.00
15477;BME280;7840;42.702;23.296;2023-01-28T13:21:34;94827.38;;;1.22;100.00
15477;BME280;7840;42.702;23.296;2023-01-28T13:24:06;94834.59;;;1.20;100.00
15477;BME280;7840;42.702;23.296;2023-01-28T13:26:46;94828.72;;;1.04;100.00
15477;BME280;7840;42.702;23.296;2023-01-28T13:29:30;94830.44;;;0.91;100.00
15477;BME280;7840;42.702;23.296;2023-01-28T13:32:00;94834.34;;;0.73;100.00
15477;BME280;7840;42.702;23.296;2023-01-28T13:34:35;94841.75;;;0.70;100.00
15477;BME280;7840;42.702;23.296;2023-01-28T13:37:15;94859.63;;;0.73;100.00
15477;BME280;7840;42.702;23.296;2023-01-28T13:40:20;94851.72;;;0.94;100.00
15477;BME280;7840;42.702;23.296;2023-01-28T13:42:58;94847.75;;;0.98;100.00
15477;BME280;7840;42.702;23.296;2023-01-28T13:45:28;94845.56;;;1.08;100.00
15477;BME280;7840;42.702;23.296;2023-01-28T13:48:26;94849.75;;;0.96;100.00
15477;BME280;7840;42.702;23.296;2023-01-28T13:50:57;94848.50;;;0.92;100.00
15477;BME280;7840;42.702;23.296;2023-01-28T13:53:49;94854.88;;;0.83;100.00
15477;BME280;7840;42.702;23.296;2023-01-28T13:56:28;94868.81;;;0.69;100.00
15477;BME280;7840;42.702;23.296;2023-01-28T13:59:17;94866.88;;;0.77;100.00
15477;BME280;7840;42.702;23.296;2023-01-28T14:02:39;94867.53;;;0.86;100.00
15477;BME280;7840;42.702;23.296;2023-01-28T14:08:48;94865.13;;;0.57;100.00
15477;BME280;7840;42.702;23.296;2023-01-28T14:11:39;94874.06;;;0.47;100.00
15477;BME280;7840;42.702;23.296;2023-01-28T14:14:56;94870.84;;;0.45;100.00
15477;BME280;7840;42.702;23.296;2023-01-28T14:17:38;94880.66;;;0.43;100.00
15477;BME280;7840;42.702;23.296;2023-01-28T14:20:17;94885.69;;;0.23;100.00
15477;BME280;7840;42.702;23.296;2023-01-28T14:23:12;94895.38;;;0.30;100.00
15477;BME280;7840;42.702;23.296;2023-01-28T14:26:26;94891.28;;;0.42;100.00